Time;durP1;ratioP1;P1;durP2;ratioP2;P2;SDS_P1;SDS_P2;PMS_P1;PMS_P2;Temp;Humidity;BMP_temperature;BMP_pressure;BME280_temperature;BME280_humidity;BME280_pressure;Samples;Min_cycle;Max_cycle;Signal;HPM_P1;HPM_P2
2022/10/25 00:00:14;;;;;;;2.83;1.55;;;14.70;99.90;;;;;;5085350;28;20296;-65
2022/10/25 00:02:40;;;;;;;5.00;1.88;;;14.80;99.90;;;;;;5079815;28;20193;-65
2022/10/25 00:05:06;;;;;;;5.25;2.05;;;14.80;99.90;;;;;;5088011;28;20249;-65
2022/10/25 00:07:32;;;;;;;2.85;1.95;;;14.70;99.90;;;;;;5077893;28;20205;-65
2022/10/25 00:09:57;;;;;;;3.35;2.15;;;14.70;99.90;;;;;;5084747;28;20204;-65
2022/10/25 00:12:23;;;;;;;7.90;2.10;;;14.70;99.90;;;;;;5089391;28;20215;-65
2022/10/25 00:14:48;;;;;;;1.65;1.33;;;14.60;99.90;;;;;;5074779;28;20536;-67
2022/10/25 00:17:14;;;;;;;4.18;1.38;;;14.50;99.90;;;;;;5079848;28;20689;-66
2022/10/25 00:19:40;;;;;;;5.68;2.72;;;14.60;99.90;;;;;;5059108;28;20231;-65
2022/10/25 00:22:05;;;;;;;2.92;1.58;;;14.70;99.90;;;;;;5092930;28;20233;-65
2022/10/25 00:24:31;;;;;;;3.70;3.22;;;14.80;99.90;;;;;;5081654;28;20271;-65
2022/10/25 00:26:57;;;;;;;4.88;1.55;;;14.80;99.90;;;;;;5077400;28;20173;-65
2022/10/25 00:29:22;;;;;;;3.20;1.75;;;14.80;99.90;;;;;;5075512;28;20186;-65
2022/10/25 00:31:48;;;;;;;4.88;2.30;;;14.70;99.90;;;;;;5072555;28;20185;-66
2022/10/25 00:34:14;;;;;;;1.60;1.15;;;14.70;99.90;;;;;;5071037;28;20257;-65
2022/10/25 00:36:39;;;;;;;6.18;2.22;;;14.80;99.90;;;;;;5074318;28;20315;-65
2022/10/25 00:39:05;;;;;;;3.88;1.60;;;14.70;99.90;;;;;;5075475;28;20181;-67
2022/10/25 00:41:33;;;;;;;9.18;1.20;;;14.60;99.90;;;;;;5082821;28;20238;-65
2022/10/25 00:44:39;;;;;;;2.58;1.48;;;14.60;99.90;;;;;;5075123;28;20231;-66
2022/10/25 00:47:17;;;;;;;1.35;1.25;;;14.60;99.90;;;;;;5072607;28;20222;-65
2022/10/25 00:49:44;;;;;;;9.02;2.40;;;14.60;99.90;;;;;;5082452;28;20242;-65
2022/10/25 00:52:10;;;;;;;6.38;1.67;;;14.60;99.90;;;;;;5079947;28;20540;-65
2022/10/25 00:54:41;;;;;;;3.80;1.55;;;14.70;99.90;;;;;;5086090;28;20184;-65
2022/10/25 00:57:16;;;;;;;4.43;1.67;;;14.90;99.90;;;;;;5083045;28;20204;-66
2022/10/25 00:59:44;;;;;;;3.60;2.25;;;14.70;99.90;;;;;;5090557;28;20204;-65
2022/10/25 01:02:10;;;;;;;1.95;1.75;;;14.50;99.90;;;;;;5086373;28;20173;-65
2022/10/25 01:04:37;;;;;;;1.77;1.67;;;14.50;99.90;;;;;;5074551;28;20177;-65
2022/10/25 01:07:03;;;;;;;4.15;2.25;;;14.50;99.90;;;;;;5079048;28;20261;-66
2022/10/25 01:09:34;;;;;;;5.43;1.30;;;14.50;99.90;;;;;;5082609;28;20280;-66
2022/10/25 01:12:00;;;;;;;5.15;1.58;;;14.60;99.90;;;;;;5073708;28;20193;-65
2022/10/25 01:14:27;;;;;;;7.45;1.75;;;14.60;99.90;;;;;;5069775;28;20226;-66
2022/10/25 01:16:55;;;;;;;1.85;1.27;;;14.60;99.90;;;;;;5084089;28;20181;-65
2022/10/25 01:19:36;;;;;;;6.07;1.77;;;14.70;99.90;;;;;;5073475;28;20292;-66
2022/10/25 01:22:07;;;;;;;3.17;1.40;;;14.70;99.90;;;;;;5081197;28;20613;-65
2022/10/25 01:24:36;;;;;;;4.72;1.40;;;14.70;99.90;;;;;;5076651;28;20707;-66
2022/10/25 01:27:30;;;;;;;2.92;1.17;;;14.70;99.90;;;;;;5072946;28;20338;-65
2022/10/25 01:30:05;;;;;;;5.70;1.58;;;14.70;99.90;;;;;;5079686;28;20173;-65
2022/10/25 01:33:04;;;;;;;3.67;1.30;;;14.60;99.90;;;;;;5073411;28;20255;-65
2022/10/25 01:35:56;;;;;;;1.92;1.80;;;14.60;99.90;;;;;;5072883;28;20184;-65
2022/10/25 01:38:57;;;;;;;5.53;1.50;;;14.60;99.90;;;;;;5074898;28;20269;-65
2022/10/25 01:41:28;;;;;;;5.55;2.08;;;14.60;99.90;;;;;;5064012;28;20216;-65
2022/10/25 01:43:59;;;;;;;5.13;1.60;;;14.70;99.90;;;;;;5072582;28;20170;-65
2022/10/25 01:46:51;;;;;;;1.60;1.13;;;14.60;99.90;;;;;;5073107;28;20185;-66
2022/10/25 01:49:37;;;;;;;1.75;1.30;;;14.60;99.90;;;;;;5085907;28;20534;-65
2022/10/25 01:52:03;;;;;;;5.18;1.90;;;14.70;99.90;;;;;;5087605;28;20181;-65
2022/10/25 01:54:29;;;;;;;3.53;1.80;;;14.70;99.90;;;;;;5079700;28;20577;-66
2022/10/25 01:57:24;;;;;;;4.85;1.40;;;14.70;99.90;;;;;;5069462;28;20177;-65
2022/10/25 02:00:03;;;;;;;8.30;2.30;;;14.60;99.90;;;;;;5026138;28;20231;-66
2022/10/25 02:02:40;;;;;;;1.80;1.63;;;14.60;99.90;;;;;;5074619;28;20282;-66
2022/10/25 02:05:15;;;;;;;5.90;2.65;;;14.70;99.90;;;;;;5091149;28;20180;-65
2022/10/25 02:08:04;;;;;;;2.28;1.83;;;14.70;99.90;;;;;;5074895;28;20217;-65
2022/10/25 02:11:13;;;;;;;4.35;1.60;;;14.60;99.90;;;;;;5072379;28;20258;-64
2022/10/25 02:14:00;;;;;;;4.15;2.08;;;14.70;99.90;;;;;;5041045;28;20239;-64
2022/10/25 02:16:30;;;;;;;3.42;1.52;;;14.60;99.90;;;;;;5083031;28;20334;-64
2022/10/25 02:19:01;;;;;;;3.03;1.90;;;14.50;99.90;;;;;;5084338;28;20657;-64
2022/10/25 02:21:29;;;;;;;3.17;1.98;;;14.60;99.90;;;;;;5074676;28;20191;-65
2022/10/25 02:23:58;;;;;;;3.15;1.70;;;14.60;99.90;;;;;;5083402;28;20196;-65
2022/10/25 02:26:26;;;;;;;6.78;2.35;;;14.60;99.90;;;;;;5086132;28;20227;-66
2022/10/25 02:28:53;;;;;;;2.35;1.73;;;14.60;99.90;;;;;;5076816;28;20185;-66
2022/10/25 02:31:21;;;;;;;2.63;1.50;;;14.50;99.90;;;;;;5077743;28;20196;-66
2022/10/25 02:33:47;;;;;;;8.45;1.92;;;14.50;99.90;;;;;;5081839;28;20188;-66
2022/10/25 02:36:12;;;;;;;2.15;1.55;;;14.70;99.90;;;;;;5090299;28;20571;-66
2022/10/25 02:38:39;;;;;;;3.20;2.35;;;14.80;99.90;;;;;;5081916;28;20180;-64
2022/10/25 02:41:05;;;;;;;3.95;1.80;;;14.70;99.90;;;;;;5083082;28;20225;-64
2022/10/25 02:43:31;;;;;;;2.75;1.73;;;14.50;99.90;;;;;;5080221;28;20189;-63
2022/10/25 02:45:58;;;;;;;5.22;3.20;;;14.60;99.90;;;;;;5077802;28;20269;-64
2022/10/25 02:48:24;;;;;;;4.25;1.58;;;14.60;99.90;;;;;;5087751;28;20698;-64
2022/10/25 02:50:49;;;;;;;3.60;1.42;;;14.60;99.90;;;;;;5089902;28;20189;-64
2022/10/25 02:53:15;;;;;;;2.95;1.70;;;14.70;99.90;;;;;;5079743;28;20546;-64
2022/10/25 02:55:41;;;;;;;3.03;1.63;;;14.80;99.90;;;;;;5086205;28;20549;-64
2022/10/25 02:58:06;;;;;;;3.42;1.70;;;14.80;99.90;;;;;;5092202;28;20197;-64
2022/10/25 03:00:32;;;;;;;1.60;1.50;;;14.80;99.90;;;;;;5083400;28;20209;-64
2022/10/25 03:02:57;;;;;;;6.07;1.73;;;14.70;99.90;;;;;;5081858;28;20607;-64
2022/10/25 03:05:23;;;;;;;1.40;1.40;;;14.60;99.90;;;;;;5075406;28;20216;-65
2022/10/25 03:07:49;;;;;;;6.72;2.20;;;14.60;99.90;;;;;;5075057;28;20205;-65
2022/10/25 03:10:14;;;;;;;4.88;1.60;;;14.60;99.90;;;;;;5086064;28;20230;-64
2022/10/25 03:12:40;;;;;;;5.05;1.90;;;14.70;99.90;;;;;;5075946;28;20646;-64
2022/10/25 03:15:06;;;;;;;2.35;2.00;;;14.80;99.90;;;;;;5088036;28;20189;-65
2022/10/25 03:17:32;;;;;;;4.15;2.00;;;14.60;99.90;;;;;;5091037;28;20251;-65
2022/10/25 03:19:57;;;;;;;3.15;1.67;;;14.50;99.90;;;;;;5082033;28;20665;-64
2022/10/25 03:22:23;;;;;;;5.90;2.17;;;14.50;99.90;;;;;;5079328;28;20193;-64
2022/10/25 03:24:49;;;;;;;11.10;2.10;;;14.50;99.90;;;;;;5075104;28;20184;-65
2022/10/25 03:27:16;;;;;;;3.20;1.60;;;14.50;99.90;;;;;;5074379;28;20230;-64
2022/10/25 03:29:42;;;;;;;5.82;1.75;;;14.40;99.90;;;;;;5074817;28;20174;-64
2022/10/25 03:32:08;;;;;;;3.28;2.50;;;14.30;99.90;;;;;;5074224;28;20185;-65
2022/10/25 03:34:34;;;;;;;4.53;2.67;;;14.30;99.90;;;;;;5074333;28;20181;-64
2022/10/25 03:36:59;;;;;;;3.75;2.17;;;14.30;99.90;;;;;;5074866;28;20270;-64
2022/10/25 03:39:25;;;;;;;5.63;2.30;;;14.30;99.90;;;;;;5074149;28;20213;-65
2022/10/25 03:41:51;;;;;;;3.28;2.22;;;14.30;99.90;;;;;;5074751;28;20189;-65
2022/10/25 03:44:16;;;;;;;5.28;1.80;;;14.20;99.90;;;;;;5073531;28;20178;-66
2022/10/25 03:46:42;;;;;;;4.10;1.65;;;14.40;99.90;;;;;;5099378;28;20686;-66
2022/10/25 03:49:08;;;;;;;5.72;1.83;;;14.40;99.90;;;;;;5089532;28;20185;-65
2022/10/25 03:51:33;;;;;;;4.75;2.22;;;14.30;99.90;;;;;;5085385;28;20275;-65
2022/10/25 03:53:59;;;;;;;2.88;2.15;;;14.20;99.90;;;;;;5076975;28;20559;-63
2022/10/25 03:56:25;;;;;;;3.88;1.73;;;14.20;99.90;;;;;;5086589;28;20650;-63
2022/10/25 03:58:52;;;;;;;4.00;2.20;;;14.40;99.90;;;;;;5075424;28;20196;-63
2022/10/25 04:01:17;;;;;;;7.57;2.25;;;14.20;99.90;;;;;;5079562;28;20224;-64
2022/10/25 04:03:44;;;;;;;2.70;2.15;;;14.30;99.90;;;;;;5101443;28;20215;-65
2022/10/25 04:06:10;;;;;;;6.72;2.90;;;14.20;99.90;;;;;;5073899;28;20250;-64
2022/10/25 04:08:37;;;;;;;2.53;2.28;;;14.00;99.90;;;;;;5085208;28;20180;-66
2022/10/25 04:11:03;;;;;;;3.17;1.95;;;14.00;99.90;;;;;;5076875;28;20200;-66
2022/10/25 04:13:28;;;;;;;5.75;2.53;;;14.10;99.90;;;;;;5086583;28;20191;-65
2022/10/25 04:15:54;;;;;;;6.50;2.50;;;14.10;99.90;;;;;;5074370;28;20189;-65
2022/10/25 04:18:20;;;;;;;4.13;2.30;;;14.20;99.90;;;;;;5073011;28;20192;-65
2022/10/25 04:20:46;;;;;;;7.55;3.03;;;14.30;99.90;;;;;;5086152;28;20201;-65
2022/10/25 04:23:12;;;;;;;4.22;2.33;;;14.30;99.90;;;;;;5078088;28;20196;-65
2022/10/25 04:25:37;;;;;;;5.25;3.30;;;14.20;99.90;;;;;;5056601;28;20252;-65
2022/10/25 04:28:03;;;;;;;9.25;4.20;;;14.10;99.90;;;;;;5077308;28;20184;-65
2022/10/25 04:30:29;;;;;;;9.65;2.72;;;14.20;99.90;;;;;;5078484;28;20193;-64
2022/10/25 04:32:58;;;;;;;6.85;3.88;;;14.20;99.90;;;;;;5085665;28;20717;-64
2022/10/25 04:35:24;;;;;;;6.13;3.30;;;14.20;99.90;;;;;;5075201;28;20190;-66
2022/10/25 04:37:50;;;;;;;8.65;3.80;;;14.10;99.90;;;;;;5089952;28;20185;-67
2022/10/25 04:40:17;;;;;;;4.00;3.47;;;14.10;99.90;;;;;;5073713;28;20578;-64
2022/10/25 04:42:42;;;;;;;5.13;2.92;;;14.20;99.90;;;;;;5074006;28;20189;-64
2022/10/25 04:45:09;;;;;;;7.00;3.35;;;14.20;99.90;;;;;;5091179;28;20195;-65
2022/10/25 04:47:34;;;;;;;9.30;4.32;;;14.20;99.90;;;;;;5086818;28;20188;-68
2022/10/25 04:50:00;;;;;;;3.90;3.00;;;14.20;99.90;;;;;;5091237;28;20633;-65
2022/10/25 04:52:28;;;;;;;6.72;3.38;;;14.30;99.90;;;;;;5073719;28;20181;-65
2022/10/25 04:54:54;;;;;;;8.57;3.65;;;14.20;99.90;;;;;;5081651;28;20188;-65
2022/10/25 04:57:20;;;;;;;3.47;2.65;;;14.40;99.90;;;;;;5073798;28;20231;-65
2022/10/25 04:59:45;;;;;;;5.22;3.03;;;14.30;99.90;;;;;;5081953;28;20211;-65
2022/10/25 05:02:11;;;;;;;4.43;2.47;;;14.30;99.90;;;;;;5079848;28;20231;-65
2022/10/25 05:04:37;;;;;;;6.70;3.28;;;14.30;99.90;;;;;;5073967;28;20586;-65
2022/10/25 05:07:02;;;;;;;5.22;3.15;;;14.40;99.90;;;;;;5073336;28;20304;-66
2022/10/25 05:09:28;;;;;;;5.45;2.83;;;14.30;99.90;;;;;;5074636;28;20271;-65
2022/10/25 05:11:54;;;;;;;3.95;2.90;;;14.20;99.90;;;;;;5073496;28;20193;-66
2022/10/25 05:14:19;;;;;;;6.93;3.13;;;14.20;99.90;;;;;;5096729;27;20181;-65
2022/10/25 05:16:45;;;;;;;7.88;3.67;;;14.10;99.90;;;;;;5074524;28;20185;-66
2022/10/25 05:19:11;;;;;;;5.13;3.28;;;14.20;99.90;;;;;;5085292;28;20184;-65
2022/10/25 05:21:36;;;;;;;6.72;3.42;;;14.10;99.90;;;;;;5074886;28;20676;-66
2022/10/25 05:24:02;;;;;;;4.30;2.97;;;14.20;99.90;;;;;;5085259;28;20298;-66
2022/10/25 05:26:29;;;;;;;7.20;3.40;;;14.20;99.90;;;;;;5078557;28;20173;-67
2022/10/25 05:28:55;;;;;;;4.82;2.97;;;14.10;99.90;;;;;;5081865;28;20173;-66
2022/10/25 05:31:27;;;;;;;4.03;3.33;;;14.20;99.90;;;;;;5085731;28;20191;-66
2022/10/25 05:33:55;;;;;;;9.70;3.65;;;14.30;99.90;;;;;;5080887;28;20172;-64
2022/10/25 05:36:21;;;;;;;5.07;2.63;;;14.30;99.90;;;;;;5080790;28;20544;-66
2022/10/25 05:38:47;;;;;;;6.78;3.72;;;14.30;99.90;;;;;;5093978;28;20169;-66
2022/10/25 05:41:14;;;;;;;8.07;3.20;;;14.30;99.90;;;;;;5072428;28;20663;-69
2022/10/25 05:43:40;;;;;;;4.72;3.83;;;14.30;99.90;;;;;;5076337;28;20231;-67
2022/10/25 05:46:07;;;;;;;6.50;2.90;;;14.30;99.90;;;;;;5085126;28;20239;-64
2022/10/25 05:48:35;;;;;;;3.13;2.80;;;14.30;99.90;;;;;;5086836;28;20241;-66
2022/10/25 05:51:22;;;;;;;4.00;3.58;;;14.30;99.90;;;;;;5079232;28;20705;-66
2022/10/25 05:53:50;;;;;;;7.25;4.60;;;14.20;99.90;;;;;;5079062;28;20174;-67
2022/10/25 05:56:16;;;;;;;7.32;3.38;;;14.20;99.90;;;;;;5072570;28;20212;-68
2022/10/25 05:58:42;;;;;;;8.63;3.83;;;14.30;99.90;;;;;;5084179;28;20279;-67
2022/10/25 06:01:10;;;;;;;7.03;3.13;;;14.30;99.90;;;;;;5087464;28;20494;-66
2022/10/25 06:03:36;;;;;;;7.97;4.40;;;14.40;99.90;;;;;;5076834;28;20184;-68
2022/10/25 06:06:04;;;;;;;3.88;3.28;;;14.40;99.90;;;;;;5075108;28;20256;-67
2022/10/25 06:08:30;;;;;;;5.40;4.03;;;14.40;99.90;;;;;;5080832;28;20180;-67
2022/10/25 06:11:04;;;;;;;9.20;5.05;;;14.40;99.90;;;;;;5077982;28;20196;-65
2022/10/25 06:13:30;;;;;;;17.73;5.07;;;14.40;99.90;;;;;;5080985;28;20207;-66
2022/10/25 06:15:56;;;;;;;8.35;3.80;;;14.30;99.90;;;;;;5075976;28;20181;-66
2022/10/25 06:18:22;;;;;;;5.90;3.30;;;14.30;99.90;;;;;;5092164;28;20192;-65
2022/10/25 06:20:48;;;;;;;5.43;3.55;;;14.40;99.90;;;;;;5084348;28;20689;-64
2022/10/25 06:23:14;;;;;;;6.35;4.38;;;14.50;99.90;;;;;;5083816;28;20197;-66
2022/10/25 06:25:39;;;;;;;7.72;3.95;;;14.50;99.90;;;;;;5092975;28;20283;-68
2022/10/25 06:28:08;;;;;;;8.82;3.58;;;14.30;99.90;;;;;;5086200;28;20204;-69
2022/10/25 06:30:34;;;;;;;7.97;4.50;;;14.50;99.90;;;;;;5072246;28;20231;-66
2022/10/25 06:32:59;;;;;;;7.90;3.25;;;14.60;99.90;;;;;;5082301;28;20203;-67
2022/10/25 06:35:25;;;;;;;8.05;4.53;;;14.60;99.90;;;;;;5082985;28;20206;-65
2022/10/25 06:37:51;;;;;;;5.53;3.10;;;14.40;99.90;;;;;;5079879;28;20185;-64
2022/10/25 06:40:16;;;;;;;6.38;3.50;;;14.40;99.90;;;;;;5095474;28;20689;-65
2022/10/25 06:42:42;;;;;;;6.20;3.30;;;14.40;99.90;;;;;;5080045;28;20665;-67
2022/10/25 06:45:08;;;;;;;8.57;3.85;;;14.50;99.90;;;;;;5082950;28;20322;-65
2022/10/25 06:47:34;;;;;;;6.40;2.58;;;14.60;99.90;;;;;;5093863;28;20199;-66
2022/10/25 06:49:59;;;;;;;9.18;3.05;;;14.60;99.90;;;;;;5089152;28;20184;-65
2022/10/25 06:52:27;;;;;;;6.88;2.85;;;14.50;99.90;;;;;;5090573;28;20231;-66
2022/10/25 06:54:53;;;;;;;6.55;3.38;;;14.30;99.90;;;;;;5086274;28;20186;-65
2022/10/25 06:57:18;;;;;;;4.30;2.97;;;14.30;99.90;;;;;;5083443;28;20522;-65
2022/10/25 06:59:44;;;;;;;6.88;2.88;;;14.30;99.90;;;;;;5082660;28;20283;-66
2022/10/25 07:02:10;;;;;;;4.97;2.30;;;14.30;99.90;;;;;;5089321;28;20539;-66
2022/10/25 07:04:36;;;;;;;2.70;2.38;;;14.30;99.90;;;;;;5073505;28;20181;-66
2022/10/25 07:07:01;;;;;;;9.05;3.08;;;14.40;99.90;;;;;;5081625;28;20246;-67
2022/10/25 07:09:28;;;;;;;2.40;2.05;;;14.50;99.90;;;;;;5088483;28;20189;-66
2022/10/25 07:11:53;;;;;;;4.82;1.70;;;14.60;99.90;;;;;;5078759;28;20192;-66
2022/10/25 07:14:20;;;;;;;2.55;1.83;;;14.60;99.90;;;;;;5081750;28;20184;-66
2022/10/25 07:16:45;;;;;;;9.95;3.53;;;14.80;99.90;;;;;;5079285;28;20669;-66
2022/10/25 07:19:11;;;;;;;4.40;2.53;;;15.00;99.90;;;;;;5080685;28;20185;-67
2022/10/25 07:21:37;;;;;;;2.35;2.17;;;15.20;99.90;;;;;;5081785;28;20208;-66
2022/10/25 07:24:03;;;;;;;3.63;1.92;;;15.70;99.90;;;;;;5079512;28;20189;-67
2022/10/25 07:26:32;;;;;;;5.75;1.65;;;16.10;99.90;;;;;;5074976;28;20181;-66
2022/10/25 07:28:59;;;;;;;8.35;2.65;;;16.20;99.90;;;;;;5089004;28;20183;-66
2022/10/25 07:31:28;;;;;;;4.82;1.98;;;16.10;99.90;;;;;;5080455;28;20192;-66
2022/10/25 07:33:57;;;;;;;6.97;1.85;;;15.80;99.90;;;;;;5082213;28;20537;-65
2022/10/25 07:36:22;;;;;;;6.07;2.13;;;15.80;99.90;;;;;;5081687;28;20181;-65
2022/10/25 07:38:48;;;;;;;2.72;1.90;;;15.80;99.90;;;;;;5074218;28;20571;-66
2022/10/25 07:41:14;;;;;;;2.50;1.55;;;15.70;99.90;;;;;;5074724;28;20231;-68
2022/10/25 07:43:40;;;;;;;3.45;2.15;;;15.60;99.90;;;;;;5089521;28;20173;-66
2022/10/25 07:46:06;;;;;;;2.17;1.70;;;15.90;99.90;;;;;;5081045;28;20172;-66
2022/10/25 07:48:32;;;;;;;9.35;1.70;;;16.00;99.90;;;;;;5081173;28;20678;-66
2022/10/25 07:51:05;;;;;;;9.02;2.17;;;16.00;99.90;;;;;;5074552;28;20188;-66
2022/10/25 07:53:31;;;;;;;3.47;2.60;;;15.90;99.90;;;;;;5086684;28;20634;-66
2022/10/25 07:55:57;;;;;;;2.35;1.35;;;15.80;99.90;;;;;;5079036;28;20211;-66
2022/10/25 07:58:23;;;;;;;2.85;1.90;;;15.70;99.90;;;;;;5081542;28;20189;-66
2022/10/25 08:00:48;;;;;;;5.78;1.58;;;15.80;99.90;;;;;;5087900;28;20209;-66
2022/10/25 08:03:16;;;;;;;5.78;2.10;;;15.90;99.90;;;;;;5092696;28;20240;-66
2022/10/25 08:05:47;;;;;;;6.88;1.95;;;15.70;99.90;;;;;;5088963;28;20181;-65
2022/10/25 08:08:13;;;;;;;2.92;1.77;;;15.40;99.90;;;;;;5080810;28;20207;-66
2022/10/25 08:10:42;;;;;;;4.35;2.15;;;15.30;99.90;;;;;;5074412;28;20334;-66
2022/10/25 08:13:07;;;;;;;3.25;2.35;;;15.20;99.90;;;;;;5094095;28;20188;-65
2022/10/25 08:15:35;;;;;;;6.13;2.03;;;15.10;99.90;;;;;;5078700;28;20572;-66
2022/10/25 08:18:01;;;;;;;2.10;1.88;;;15.00;99.90;;;;;;5089635;28;20282;-66
2022/10/25 08:20:28;;;;;;;4.00;1.55;;;15.00;99.90;;;;;;5074018;28;20574;-66
2022/10/25 08:22:58;;;;;;;4.82;2.10;;;14.90;99.90;;;;;;5074636;28;20209;-67
2022/10/25 08:25:24;;;;;;;5.78;2.70;;;14.90;99.90;;;;;;5077535;28;20185;-68
2022/10/25 08:27:50;;;;;;;3.17;2.33;;;14.90;99.90;;;;;;5080926;28;20525;-67
2022/10/25 08:30:15;;;;;;;4.97;2.55;;;14.90;99.90;;;;;;5077911;28;20188;-66
2022/10/25 08:32:41;;;;;;;3.90;2.72;;;15.00;99.90;;;;;;5086701;28;20184;-66
2022/10/25 08:35:07;;;;;;;4.25;1.83;;;15.10;99.90;;;;;;5072670;28;20181;-65
2022/10/25 08:37:33;;;;;;;7.53;2.20;;;15.00;99.90;;;;;;5078483;28;20193;-64
2022/10/25 08:39:58;;;;;;;2.70;2.50;;;15.10;99.90;;;;;;5086071;28;20604;-64
2022/10/25 08:42:32;;;;;;;6.95;2.08;;;15.20;99.90;;;;;;5077006;28;20177;-65
2022/10/25 08:45:24;;;;;;;4.00;2.40;;;15.40;99.90;;;;;;5078633;28;20466;-66
2022/10/25 08:47:52;;;;;;;4.70;2.05;;;15.50;99.90;;;;;;5081543;28;20263;-65
2022/10/25 08:50:21;;;;;;;2.80;2.17;;;15.70;99.90;;;;;;5098843;28;20288;-66
2022/10/25 08:52:57;;;;;;;7.55;2.67;;;15.70;99.90;;;;;;5072083;28;20340;-65
2022/10/25 08:55:33;;;;;;;4.18;1.88;;;15.60;99.90;;;;;;5086942;28;20181;-65
2022/10/25 08:58:01;;;;;;;4.05;1.80;;;15.60;99.90;;;;;;5074776;28;20181;-65
2022/10/25 09:00:35;;;;;;;3.58;1.90;;;15.60;99.90;;;;;;5072087;28;20550;-65
2022/10/25 09:03:02;;;;;;;9.50;2.97;;;15.50;99.90;;;;;;5075035;28;20622;-65
2022/10/25 09:05:39;;;;;;;9.43;2.75;;;15.50;99.90;;;;;;5076924;28;20209;-65
2022/10/25 09:08:41;;;;;;;4.03;2.03;;;15.60;99.90;;;;;;5084739;28;20259;-65
2022/10/25 09:11:32;;;;;;;8.40;2.80;;;15.60;99.90;;;;;;5081275;28;20203;-66
2022/10/25 09:14:07;;;;;;;4.85;2.63;;;15.70;99.90;;;;;;5084463;28;20645;-66
2022/10/25 09:17:03;;;;;;;3.35;3.05;;;15.80;99.90;;;;;;5073434;28;20184;-65
2022/10/25 09:19:33;;;;;;;4.25;2.58;;;15.80;99.90;;;;;;5067474;28;20685;-64
2022/10/25 09:22:15;;;;;;;3.75;1.65;;;15.80;99.90;;;;;;5082782;28;20173;-67
2022/10/25 09:25:04;;;;;;;1.98;1.88;;;15.80;99.90;;;;;;5079997;28;20203;-66
2022/10/25 09:27:38;;;;;;;4.30;1.90;;;16.10;99.90;;;;;;5087840;28;20211;-66
2022/10/25 09:30:07;;;;;;;4.10;2.10;;;16.30;99.90;;;;;;5078422;28;20734;-65
2022/10/25 09:32:52;;;;;;;3.17;2.03;;;16.60;99.90;;;;;;5072895;28;20264;-66
2022/10/25 09:35:54;;;;;;;2.47;1.65;;;16.60;99.90;;;;;;5072351;28;20258;-66
2022/10/25 09:38:25;;;;;;;4.10;2.55;;;16.50;99.90;;;;;;5075789;28;20172;-65
2022/10/25 09:41:03;;;;;;;7.72;1.83;;;16.60;99.90;;;;;;5082560;28;20577;-65
2022/10/25 09:43:36;;;;;;;1.52;1.40;;;16.80;99.90;;;;;;5077726;28;20251;-66
2022/10/25 09:46:11;;;;;;;1.75;1.65;;;16.80;99.90;;;;;;5083205;28;20234;-66
2022/10/25 09:48:45;;;;;;;4.50;1.75;;;16.90;99.90;;;;;;5074333;28;20211;-67
2022/10/25 09:51:21;;;;;;;6.65;3.05;;;16.90;99.90;;;;;;5081703;28;20209;-66
2022/10/25 09:53:47;;;;;;;5.57;2.28;;;17.10;99.90;;;;;;5078988;28;20169;-66
2022/10/25 09:56:13;;;;;;;3.53;1.40;;;17.10;99.90;;;;;;5075696;28;20189;-66
2022/10/25 09:58:41;;;;;;;3.95;1.48;;;16.80;99.90;;;;;;5078435;28;20180;-67
2022/10/25 10:01:22;;;;;;;6.28;1.55;;;16.80;99.90;;;;;;5082298;28;20200;-66
2022/10/25 10:03:48;;;;;;;2.45;1.58;;;16.70;99.90;;;;;;5079876;28;20658;-66
2022/10/25 10:06:33;;;;;;;5.95;2.55;;;16.80;99.90;;;;;;5087662;28;20259;-66
2022/10/25 10:09:08;;;;;;;1.80;1.63;;;17.00;99.90;;;;;;5073778;28;20761;-66
2022/10/25 10:11:35;;;;;;;4.82;2.60;;;16.80;99.90;;;;;;5083801;28;20215;-65
2022/10/25 10:14:10;;;;;;;3.22;2.00;;;16.70;99.90;;;;;;5090245;28;20652;-69
2022/10/25 10:16:43;;;;;;;2.65;1.60;;;16.70;99.90;;;;;;5083943;28;20185;-66
2022/10/25 10:19:20;;;;;;;3.20;1.58;;;16.70;99.90;;;;;;5072659;28;20185;-65
2022/10/25 10:22:07;;;;;;;6.55;1.48;;;16.60;99.90;;;;;;5072744;28;20189;-66
2022/10/25 10:24:34;;;;;;;4.05;1.65;;;16.70;99.90;;;;;;5089836;28;20185;-65
2022/10/25 10:27:25;;;;;;;2.05;1.23;;;16.90;99.90;;;;;;5083804;28;20185;-67
2022/10/25 10:30:05;;;;;;;3.88;1.50;;;16.80;99.90;;;;;;5065909;28;20193;-66
2022/10/25 10:32:35;;;;;;;5.57;2.03;;;16.80;99.90;;;;;;5071546;28;20177;-66
2022/10/25 10:35:04;;;;;;;6.28;1.88;;;17.00;99.90;;;;;;5106764;28;20196;-66
2022/10/25 10:37:32;;;;;;;2.25;1.20;;;17.00;99.90;;;;;;5081867;28;20209;-67
2022/10/25 10:40:01;;;;;;;3.35;2.17;;;16.80;99.90;;;;;;5073755;28;20282;-66
2022/10/25 10:42:52;;;;;;;3.50;1.95;;;16.80;99.90;;;;;;5082501;28;20223;-67
2022/10/25 10:45:18;;;;;;;3.47;1.40;;;16.70;99.90;;;;;;5085819;28;20196;-65
2022/10/25 10:47:50;;;;;;;3.85;1.75;;;16.60;99.90;;;;;;5075035;28;20646;-67
2022/10/25 10:50:21;;;;;;;6.90;2.33;;;16.60;99.90;;;;;;5077236;28;20643;-67
2022/10/25 10:52:53;;;;;;;3.33;1.58;;;16.80;99.90;;;;;;5091807;28;20541;-67
2022/10/25 10:55:45;;;;;;;3.47;1.30;;;17.00;99.90;;;;;;5083471;28;20208;-67
2022/10/25 10:58:23;;;;;;;1.27;1.15;;;17.20;99.90;;;;;;5075944;28;20178;-66
2022/10/25 11:00:49;;;;;;;8.70;2.15;;;17.40;99.90;;;;;;5083639;28;20202;-66
2022/10/25 11:03:34;;;;;;;5.22;1.38;;;17.70;99.90;;;;;;5091344;28;20692;-66
2022/10/25 11:06:00;;;;;;;5.57;2.42;;;18.00;99.90;;;;;;5079873;28;20188;-66
2022/10/25 11:08:26;;;;;;;1.35;1.25;;;18.00;99.90;;;;;;5078264;28;20637;-66
2022/10/25 11:10:53;;;;;;;1.23;1.02;;;18.00;99.90;;;;;;5091799;28;20196;-66
2022/10/25 11:13:21;;;;;;;1.75;1.33;;;17.90;99.90;;;;;;5075200;28;20555;-66
2022/10/25 11:16:02;;;;;;;6.55;1.52;;;17.80;99.90;;;;;;5079971;28;20205;-66
2022/10/25 11:18:52;;;;;;;5.82;1.15;;;17.80;99.90;;;;;;5084263;28;20185;-66
2022/10/25 11:21:43;;;;;;;1.67;1.17;;;17.70;99.90;;;;;;5091746;28;20231;-65
2022/10/25 11:24:27;;;;;;;1.25;1.15;;;17.50;99.90;;;;;;5074910;28;20184;-65
2022/10/25 11:27:00;;;;;;;2.17;1.10;;;17.40;99.90;;;;;;5075806;28;20260;-67
2022/10/25 11:29:41;;;;;;;2.33;1.38;;;17.30;99.90;;;;;;5074810;28;20176;-65
2022/10/25 11:32:26;;;;;;;6.55;1.30;;;17.40;99.90;;;;;;5087942;28;20180;-66
2022/10/25 11:35:01;;;;;;;3.17;1.10;;;17.30;99.90;;;;;;5103543;28;20207;-68
2022/10/25 11:37:33;;;;;;;5.72;1.00;;;17.30;99.90;;;;;;5086673;28;20204;-65
2022/10/25 11:40:17;;;;;;;1.08;0.95;;;17.40;99.90;;;;;;5092187;28;21716;-67
2022/10/25 11:43:20;;;;;;;3.20;1.17;;;17.60;99.90;;;;;;5085331;28;20184;-67
2022/10/25 11:45:50;;;;;;;1.73;0.98;;;17.70;99.90;;;;;;5080536;28;20177;-67
2022/10/25 11:48:33;;;;;;;3.45;1.42;;;17.80;99.90;;;;;;5089544;28;20700;-66
2022/10/25 11:51:25;;;;;;;0.85;0.85;;;17.90;99.90;;;;;;5074022;28;20222;-66
2022/10/25 11:53:57;;;;;;;7.80;2.53;;;17.90;99.90;;;;;;5090151;28;20180;-66
2022/10/25 11:56:40;;;;;;;1.45;1.00;;;17.90;99.90;;;;;;5092824;28;20187;-66
2022/10/25 11:59:34;;;;;;;2.47;1.73;;;17.90;99.90;;;;;;5103920;28;20232;-66
2022/10/25 12:02:21;;;;;;;1.20;1.05;;;17.90;99.90;;;;;;5093329;28;20710;-66
2022/10/25 12:04:52;;;;;;;1.85;1.75;;;17.90;99.90;;;;;;5082116;28;20172;-66
2022/10/25 12:07:47;;;;;;;1.40;0.80;;;17.80;99.90;;;;;;5092980;28;20301;-67
2022/10/25 12:10:30;;;;;;;0.75;0.70;;;17.80;99.90;;;;;;5074463;28;20648;-66
2022/10/25 12:13:04;;;;;;;2.05;1.30;;;17.80;99.90;;;;;;5078149;28;20172;-67
2022/10/25 12:15:36;;;;;;;5.57;1.30;;;18.00;99.90;;;;;;5086212;28;20181;-67
2022/10/25 12:18:05;;;;;;;3.03;0.90;;;18.10;99.90;;;;;;5092160;28;20231;-67
2022/10/25 12:20:34;;;;;;;4.82;1.33;;;18.20;99.90;;;;;;5075217;28;20221;-67
2022/10/25 12:23:02;;;;;;;2.47;0.95;;;18.50;99.90;;;;;;5073521;28;20181;-67
2022/10/25 12:25:46;;;;;;;3.95;1.10;;;18.70;99.90;;;;;;5074076;28;20722;-67
2022/10/25 12:28:41;;;;;;;2.58;1.48;;;19.00;99.90;;;;;;5075865;28;20184;-67
2022/10/25 12:31:20;;;;;;;1.08;0.85;;;18.70;99.90;;;;;;5074466;28;20192;-66
2022/10/25 12:34:03;;;;;;;1.23;0.73;;;18.80;99.90;;;;;;5092551;28;20660;-67
2022/10/25 12:36:52;;;;;;;2.53;1.05;;;18.90;99.90;;;;;;5073530;28;20184;-69
2022/10/25 12:39:34;;;;;;;1.25;0.77;;;19.10;99.90;;;;;;5073318;28;20756;-66
2022/10/25 12:42:17;;;;;;;1.13;0.57;;;19.30;99.90;;;;;;5074178;28;20181;-66
2022/10/25 12:44:55;;;;;;;2.15;0.95;;;19.40;99.90;;;;;;5072927;28;20196;-66
2022/10/25 12:47:46;;;;;;;1.85;0.88;;;19.40;99.90;;;;;;5088613;28;20185;-66
2022/10/25 12:50:37;;;;;;;4.72;1.27;;;19.10;99.90;;;;;;5073907;28;20276;-68
2022/10/25 12:53:41;;;;;;;1.08;1.08;;;19.20;99.90;;;;;;5075739;28;20721;-65
2022/10/25 12:56:26;;;;;;;3.45;0.88;;;19.20;99.90;;;;;;5083590;28;20191;-66
2022/10/25 12:59:29;;;;;;;2.03;0.85;;;19.00;99.90;;;;;;5080728;28;20181;-66
2022/10/25 13:01:55;;;;;;;0.95;0.65;;;18.90;99.90;;;;;;5078903;28;20267;-67
2022/10/25 13:04:44;;;;;;;1.00;0.65;;;18.70;99.90;;;;;;5073427;28;20232;-67
2022/10/25 13:07:11;;;;;;;0.90;0.73;;;18.70;99.90;;;;;;5082272;28;20230;-68
2022/10/25 13:09:38;;;;;;;0.98;0.50;;;18.60;99.90;;;;;;5102903;28;20177;-67